createdAt,value
2023-02-14T00:03:22.204Z,16.5
2023-02-14T00:08:21.284Z,20.3
2023-02-14T00:13:20.401Z,18.6
2023-02-14T00:18:19.817Z,17.4
2023-02-14T00:23:18.642Z,7
2023-02-14T00:28:17.745Z,19.2
2023-02-14T00:33:16.858Z,9.2
2023-02-14T00:38:15.961Z,7.2
2023-02-14T00:43:15.053Z,17.2
2023-02-14T00:48:14.173Z,7.1
2023-02-14T00:53:13.330Z,9.4
2023-02-14T00:58:12.341Z,8.5
2023-02-14T01:03:11.423Z,6.1
2023-02-14T01:08:10.492Z,6
2023-02-14T01:13:09.568Z,6.3
2023-02-14T01:18:08.664Z,7.4
2023-02-14T01:23:07.745Z,5.7
2023-02-14T01:28:06.837Z,9.1
2023-02-14T01:33:05.939Z,9.5
2023-02-14T01:38:05.015Z,7
2023-02-14T01:43:04.127Z,3.9
2023-02-14T01:48:03.238Z,3.7
2023-02-14T01:53:02.350Z,3.2
2023-02-14T01:58:01.403Z,8.4
2023-02-14T02:03:00.500Z,14
2023-02-14T02:07:59.624Z,12.2
2023-02-14T02:12:58.715Z,10.5
2023-02-14T02:17:57.830Z,8.1
2023-02-14T02:22:56.930Z,8.2
2023-02-14T02:27:56.028Z,6.1
2023-02-14T02:32:55.134Z,6.3
2023-02-14T02:37:54.272Z,5.5
2023-02-14T02:42:53.347Z,10.4
2023-02-14T02:47:52.499Z,7.5
2023-02-14T02:52:51.614Z,8.1
2023-02-14T02:57:50.736Z,8.4
2023-02-14T03:02:49.886Z,7.7
2023-02-14T03:07:49.045Z,6.8
2023-02-14T03:12:48.148Z,4.3
2023-02-14T03:17:47.261Z,8.2
2023-02-14T03:22:46.372Z,5.4
2023-02-14T03:27:45.492Z,6.6
2023-02-14T03:32:44.596Z,13.3
2023-02-14T03:37:43.710Z,12.3
2023-02-14T03:42:42.861Z,10.5
2023-02-14T03:47:42.046Z,10.6
2023-02-14T03:52:41.256Z,12.1
2023-02-14T03:57:40.320Z,11.3
2023-02-14T04:02:39.458Z,12.4
2023-02-14T04:07:38.604Z,10.3
2023-02-14T04:12:38.383Z,11.6
2023-02-14T04:17:36.868Z,15.7
2023-02-14T04:22:36.000Z,29.9
2023-02-14T04:27:35.107Z,37
2023-02-14T04:32:34.226Z,15.1
2023-02-14T04:37:33.343Z,16.4
2023-02-14T04:42:32.376Z,14.3
2023-02-14T04:47:31.521Z,18.6
2023-02-14T04:52:30.601Z,10.8
2023-02-14T04:57:29.691Z,10.3
2023-02-14T05:02:28.776Z,14.2
2023-02-14T05:07:27.906Z,12.5
2023-02-14T05:12:27.029Z,12.4
2023-02-14T05:17:26.110Z,10.9
2023-02-14T05:22:25.209Z,14
2023-02-14T05:27:24.332Z,12.8
2023-02-14T05:32:23.437Z,8.5
2023-02-14T05:37:22.497Z,7.5
2023-02-14T05:42:21.694Z,6.4
2023-02-14T05:47:20.724Z,9.4
2023-02-14T05:52:19.872Z,8.7
2023-02-14T05:57:18.935Z,8
2023-02-14T06:02:18.098Z,7.3
2023-02-14T06:07:17.145Z,11.1
2023-02-14T06:12:16.280Z,6.7
2023-02-14T06:17:15.386Z,5.6
2023-02-14T06:22:14.455Z,11.8
2023-02-14T06:27:13.647Z,9.3
2023-02-14T06:32:12.841Z,5.9
2023-02-14T06:37:11.776Z,7.5
2023-02-14T06:42:10.952Z,6.1
2023-02-14T06:47:10.122Z,4.9
2023-02-14T06:52:09.186Z,5
2023-02-14T06:57:08.256Z,5.8
2023-02-14T07:02:07.385Z,7.4
2023-02-14T07:07:06.561Z,11.7
2023-02-14T07:12:05.585Z,4.1
2023-02-14T07:17:04.712Z,8.5
2023-02-14T07:22:03.842Z,5.5
2023-02-14T07:27:02.998Z,1.5
2023-02-14T07:32:02.344Z,2.4
2023-02-14T07:37:01.275Z,5.6
2023-02-14T07:42:00.461Z,6.6
2023-02-14T07:46:59.646Z,4.1
2023-02-14T07:51:58.774Z,4.6
2023-02-14T07:56:57.933Z,7.9
2023-02-14T08:01:57.176Z,6.3
2023-02-14T08:06:56.261Z,4.8
2023-02-14T08:11:55.421Z,5.7
2023-02-14T08:16:54.595Z,4.9
2023-02-14T08:21:53.797Z,3.4
2023-02-14T08:26:52.949Z,6.7
2023-02-14T08:31:52.188Z,6.9
2023-02-14T08:36:51.381Z,7.2
2023-02-14T08:41:50.566Z,3.9
2023-02-14T08:46:49.852Z,6.6
2023-02-14T08:51:49.019Z,5.7
2023-02-14T08:56:48.255Z,7.5
2023-02-14T09:01:47.408Z,7.9
2023-02-14T09:06:46.578Z,10.6
2023-02-14T09:11:45.875Z,9.6
2023-02-14T09:16:45.082Z,6.9
2023-02-14T09:21:44.256Z,7.4
2023-02-14T09:26:43.437Z,7
2023-02-14T09:31:42.758Z,10
2023-02-14T09:36:41.853Z,9.4
2023-02-14T09:41:41.139Z,6.5
2023-02-14T09:46:40.251Z,16.3
2023-02-14T09:51:39.440Z,7.4
2023-02-14T09:56:50.741Z,16.5
2023-02-14T10:01:37.984Z,8.4
2023-02-14T10:06:37.188Z,6
2023-02-14T10:11:36.410Z,9.1
2023-02-14T10:16:35.664Z,7.5
2023-02-14T10:21:34.916Z,11.4
2023-02-14T10:26:34.164Z,16
2023-02-14T10:31:33.604Z,9.1
2023-02-14T10:36:32.828Z,9.5
2023-02-14T10:41:32.037Z,15.2
2023-02-14T10:46:31.388Z,10
2023-02-14T10:51:33.491Z,10
2023-02-14T10:56:29.905Z,16.9
2023-02-14T11:01:29.285Z,14.3
2023-02-14T11:06:28.516Z,9.1
2023-02-14T11:11:27.794Z,14.1
2023-02-14T11:16:27.141Z,20.9
2023-02-14T11:21:26.418Z,10.7
2023-02-14T11:26:25.732Z,17.2
2023-02-14T11:31:25.149Z,16.5
2023-02-14T11:36:24.404Z,13.4
2023-02-14T11:41:25.173Z,19.3
2023-02-14T11:46:23.215Z,60.3
2023-02-14T11:51:22.425Z,111.9
2023-02-14T11:56:21.760Z,20.4
2023-02-14T12:01:21.081Z,13.2
2023-02-14T12:06:20.398Z,17.1
2023-02-14T12:11:19.733Z,24
2023-02-14T12:16:19.149Z,21.6
2023-02-14T12:21:18.401Z,21.6
2023-02-14T12:26:17.768Z,14.7
2023-02-14T12:31:17.300Z,15.8
2023-02-14T12:36:16.501Z,14.8
2023-02-14T12:43:30.521Z,15.9
2023-02-14T12:46:15.168Z,17.2
2023-02-14T12:51:14.538Z,18.2
2023-02-14T12:56:13.842Z,14.9
2023-02-14T13:01:16.274Z,43
2023-02-14T13:06:12.515Z,16.6
2023-02-14T13:11:11.900Z,14.4
2023-02-14T13:16:11.239Z,12.4
2023-02-14T13:21:10.576Z,22.4
2023-02-14T13:26:09.912Z,25.2
2023-02-14T13:31:09.430Z,30.6
2023-02-14T13:36:08.586Z,12.8
2023-02-14T13:41:08.020Z,18.7
2023-02-14T13:46:07.299Z,12.4
2023-02-14T13:51:06.650Z,15.1
2023-02-14T14:32:54.193Z,14.4
2023-02-14T14:36:01.310Z,16.1
2023-02-14T14:50:53.586Z,17.5
2023-02-14T14:50:58.911Z,20.3
2023-02-14T14:55:58.726Z,27.9
2023-02-14T15:00:57.488Z,32.6
2023-02-14T15:05:56.872Z,20.4
2023-02-14T15:10:59.216Z,27.1
2023-02-14T15:18:47.003Z,19
2023-02-14T15:22:43.542Z,31.2
2023-02-14T15:25:54.015Z,59.2
2023-02-14T15:30:54.742Z,41
2023-02-14T15:35:54.023Z,21.8
2023-02-14T15:40:51.994Z,19.7
2023-02-14T15:45:51.333Z,19.5
2023-02-14T15:50:50.519Z,24.1
2023-02-14T15:55:49.823Z,22.8
2023-02-14T16:00:49.123Z,35.6
2023-02-14T16:05:48.378Z,62.2
2023-02-14T16:10:47.599Z,45.8
2023-02-14T16:15:46.935Z,41.1
2023-02-14T16:20:46.125Z,32.2
2023-02-14T16:25:45.364Z,37.6
2023-02-14T16:30:44.618Z,40.3
2023-02-14T16:35:43.872Z,43.8
2023-02-14T16:40:43.081Z,48.1
2023-02-14T16:45:42.288Z,53.3
2023-02-14T16:50:41.468Z,43.6
2023-02-14T16:52:41.985Z,43.6
2023-02-14T16:56:17.461Z,45.5
2023-02-14T17:00:39.893Z,56.1
2023-02-14T17:05:39.067Z,44.4
2023-02-14T17:10:38.302Z,48.4
2023-02-14T17:15:37.545Z,50.2
2023-02-14T17:20:36.687Z,49.5
2023-02-14T17:25:35.927Z,63.8
2023-02-14T17:30:35.051Z,75.7
2023-02-14T17:35:34.329Z,72.2
2023-02-14T17:40:33.430Z,58.4
2023-02-14T17:45:32.584Z,54
2023-02-14T17:50:31.766Z,55.5
2023-02-14T17:55:30.920Z,63.6
2023-02-14T18:00:30.141Z,88.4
2023-02-14T18:04:16.886Z,88.4
2023-02-14T18:05:29.292Z,84.3
2023-02-14T18:07:41.265Z,84.3
2023-02-14T18:10:28.414Z,86
2023-02-14T18:14:32.896Z,86
2023-02-14T18:15:27.630Z,87.1
2023-02-14T18:20:26.796Z,84.3
2023-02-14T18:23:43.809Z,84.3
2023-02-14T18:25:25.990Z,71.6
2023-02-14T18:30:25.244Z,60.1
2023-02-14T18:35:24.448Z,65.5
2023-02-14T18:40:23.470Z,55.1
2023-02-14T18:45:22.666Z,67.6
2023-02-14T18:50:21.731Z,66.9
2023-02-14T18:55:20.861Z,76.6
2023-02-14T19:00:19.986Z,57.7
2023-02-14T19:05:19.151Z,88.7
2023-02-14T19:10:18.289Z,82.2
2023-02-14T19:15:17.420Z,98
2023-02-14T19:20:16.518Z,77.7
2023-02-14T19:25:15.655Z,87.2
2023-02-14T19:30:14.873Z,71.5
2023-02-14T19:35:13.897Z,66
2023-02-14T19:39:59.043Z,66
2023-02-14T19:40:13.038Z,68
2023-02-14T19:45:12.194Z,67.3
2023-02-14T19:50:11.299Z,59.1
2023-02-14T19:55:10.429Z,59.6
2023-02-14T20:00:09.470Z,55.7
2023-02-14T20:05:08.577Z,49.7
2023-02-14T20:10:07.675Z,60
2023-02-14T20:15:07.916Z,51.5
2023-02-14T20:20:05.872Z,46.4
2023-02-14T20:25:05.002Z,71
2023-02-14T20:30:04.147Z,69.9
2023-02-14T20:35:03.251Z,51.2
2023-02-14T20:40:02.343Z,31
2023-02-14T20:45:01.455Z,43.9
2023-02-14T20:50:00.544Z,34.1
2023-02-14T20:54:59.676Z,20.3
2023-02-14T20:59:58.775Z,19.4
2023-02-14T21:04:57.865Z,26.5
2023-02-14T21:09:57.001Z,32.2
2023-02-14T21:14:56.141Z,45.6
2023-02-14T21:19:55.255Z,42.2
2023-02-14T21:24:54.391Z,57.7
2023-02-14T21:29:53.509Z,45
2023-02-14T21:34:52.570Z,53.7
2023-02-14T21:39:51.725Z,57.2
2023-02-14T21:44:50.756Z,57.3
2023-02-14T21:49:49.866Z,64.1
2023-02-14T21:54:48.928Z,59.2
2023-02-14T21:59:47.985Z,56.5
2023-02-14T22:04:47.070Z,60.9
2023-02-14T22:09:46.180Z,58.7
2023-02-14T22:14:45.256Z,72.6
2023-02-14T22:19:44.360Z,52.2
2023-02-14T22:24:43.467Z,40.8
2023-02-14T22:29:42.551Z,35.1
2023-02-14T22:34:41.646Z,33.8
2023-02-14T22:39:40.694Z,36.4
2023-02-14T22:44:39.784Z,37.4
2023-02-14T22:49:38.907Z,36.2
2023-02-14T22:54:37.971Z,28.3
2023-02-14T22:59:37.070Z,21.7
2023-02-14T23:04:36.139Z,23.7
2023-02-14T23:09:35.215Z,19.6
2023-02-14T23:14:34.264Z,26.6
2023-02-14T23:19:33.348Z,21.7
2023-02-14T23:24:32.423Z,25.3
2023-02-14T23:29:31.486Z,21.3
2023-02-14T23:34:30.509Z,18.1
2023-02-14T23:39:29.558Z,18
2023-02-14T23:44:28.603Z,16.7
2023-02-14T23:49:27.663Z,16.5
2023-02-14T23:54:26.736Z,17.9
2023-02-14T23:59:25.804Z,18
